createdAt,value
2022-11-29T00:00:52.590Z,15.70
2022-11-29T00:03:25.446Z,16.70
2022-11-29T00:05:57.853Z,16.00
2022-11-29T00:08:29.967Z,14.50
2022-11-29T00:11:11.771Z,14.43
2022-11-29T00:13:43.735Z,15.00
2022-11-29T00:16:15.847Z,14.57
2022-11-29T00:18:49.508Z,14.83
2022-11-29T00:21:21.416Z,14.23
2022-11-29T00:23:53.389Z,13.53
2022-11-29T00:26:25.638Z,14.70
2022-11-29T00:28:57.578Z,14.07
2022-11-29T00:31:32.924Z,13.87
2022-11-29T00:34:08.817Z,13.83
2022-11-29T00:36:40.963Z,13.87
2022-11-29T00:39:13.581Z,13.87
2022-11-29T00:41:45.831Z,14.30
2022-11-29T00:44:20.390Z,14.70
2022-11-29T00:46:52.646Z,13.03
2022-11-29T00:49:24.579Z,14.03
2022-11-29T00:51:56.677Z,14.43
2022-11-29T00:54:28.566Z,15.73
2022-11-29T00:57:00.582Z,15.73
2022-11-29T00:59:32.459Z,15.07
2022-11-29T01:02:04.692Z,14.53
2022-11-29T01:04:36.740Z,15.37
2022-11-29T01:07:08.719Z,14.90
2022-11-29T01:09:40.852Z,14.70
2022-11-29T01:12:12.919Z,14.83
2022-11-29T01:14:45.233Z,15.33
2022-11-29T01:17:17.446Z,14.80
2022-11-29T01:19:50.784Z,14.73
2022-11-29T01:22:23.221Z,15.20
2022-11-29T01:24:55.145Z,14.30
2022-11-29T01:27:27.267Z,14.50
2022-11-29T01:29:59.316Z,15.03
2022-11-29T01:32:31.505Z,15.47
2022-11-29T01:35:05.247Z,14.27
2022-11-29T01:37:37.638Z,14.37
2022-11-29T01:40:10.171Z,14.53
2022-11-29T01:42:42.231Z,14.50
2022-11-29T01:45:24.515Z,13.97
2022-11-29T01:47:58.008Z,14.57
2022-11-29T01:50:32.528Z,13.80
2022-11-29T01:53:05.899Z,13.77
2022-11-29T01:55:45.084Z,14.67
2022-11-29T01:58:18.136Z,14.37
2022-11-29T02:00:50.190Z,14.90
2022-11-29T02:03:22.300Z,14.73
2022-11-29T02:05:55.243Z,15.83
2022-11-29T02:08:39.627Z,14.27
2022-11-29T02:11:17.464Z,14.90
2022-11-29T02:14:29.410Z,14.90
2022-11-29T02:17:59.586Z,15.90
2022-11-29T02:21:15.279Z,15.43
2022-11-29T02:24:18.501Z,15.37
2022-11-29T02:27:21.474Z,18.47
2022-11-29T02:30:50.387Z,18.30
2022-11-29T02:33:30.774Z,19.63
2022-11-29T02:36:16.534Z,19.57
2022-11-29T02:39:08.273Z,20.83
2022-11-29T02:42:21.113Z,20.47
2022-11-29T02:45:33.290Z,21.17
2022-11-29T02:48:41.926Z,19.90
2022-11-29T02:51:26.095Z,18.93
2022-11-29T02:54:23.958Z,19.63
2022-11-29T02:57:07.110Z,19.17
2022-11-29T03:00:09.000Z,19.30
2022-11-29T03:03:02.928Z,18.83
2022-11-29T03:05:41.943Z,19.30
2022-11-29T03:08:44.129Z,19.70
2022-11-29T03:11:50.868Z,19.10
2022-11-29T03:15:05.874Z,20.50
2022-11-29T03:18:14.703Z,19.77
2022-11-29T03:21:17.006Z,19.47
2022-11-29T03:23:55.175Z,21.30
2022-11-29T03:26:42.260Z,21.47
2022-11-29T03:29:36.411Z,20.87
2022-11-29T03:32:27.821Z,20.90
2022-11-29T03:35:24.441Z,20.07
2022-11-29T03:38:16.900Z,20.47
2022-11-29T03:41:13.232Z,19.77
2022-11-29T03:44:08.832Z,19.10
2022-11-29T03:46:50.954Z,17.33
2022-11-29T03:49:35.622Z,17.00
2022-11-29T03:52:50.710Z,16.47
2022-11-29T03:55:31.621Z,16.33
2022-11-29T03:58:40.720Z,16.47
2022-11-29T04:02:00.916Z,16.33
2022-11-29T04:04:57.249Z,16.00
2022-11-29T04:07:54.071Z,15.97
2022-11-29T04:10:53.093Z,15.93
2022-11-29T04:13:53.060Z,15.80
2022-11-29T04:16:52.743Z,15.47
2022-11-29T04:20:06.947Z,14.70
2022-11-29T04:23:26.216Z,14.67
2022-11-29T04:26:33.579Z,14.73
2022-11-29T04:29:59.279Z,14.67
2022-11-29T04:33:26.436Z,13.53
2022-11-29T04:36:56.844Z,13.97
2022-11-29T04:40:04.545Z,14.07
2022-11-29T04:42:45.152Z,13.90
2022-11-29T04:45:28.372Z,13.60
2022-11-29T04:48:18.070Z,14.90
2022-11-29T04:51:30.729Z,13.67
2022-11-29T04:54:32.929Z,13.83
2022-11-29T04:57:37.385Z,13.90
2022-11-29T05:00:19.554Z,13.60
2022-11-29T05:03:20.901Z,12.97
2022-11-29T05:06:30.568Z,13.63
2022-11-29T05:09:41.099Z,13.83
2022-11-29T05:13:06.117Z,14.83
2022-11-29T05:16:32.968Z,13.97
2022-11-29T05:19:29.707Z,13.50
2022-11-29T05:22:33.619Z,13.57
2022-11-29T05:25:33.316Z,13.63
2022-11-29T05:29:01.076Z,13.10
2022-11-29T05:32:28.861Z,13.63
2022-11-29T05:35:22.329Z,13.10
2022-11-29T05:38:08.581Z,13.87
2022-11-29T05:40:53.851Z,12.87
2022-11-29T05:43:48.877Z,12.90
2022-11-29T05:46:30.260Z,13.30
2022-11-29T05:49:31.303Z,12.83
2022-11-29T05:52:28.867Z,13.00
2022-11-29T05:55:41.225Z,12.70
2022-11-29T05:58:48.770Z,13.63
2022-11-29T06:01:24.347Z,12.73
2022-11-29T06:03:59.405Z,13.30
2022-11-29T06:06:53.816Z,14.10
2022-11-29T06:10:02.162Z,13.83
2022-11-29T06:12:38.218Z,13.60
2022-11-29T06:15:48.625Z,14.33
2022-11-29T06:18:46.308Z,13.37
2022-11-29T06:21:38.514Z,13.90
2022-11-29T06:25:01.450Z,13.90
2022-11-29T06:28:15.680Z,13.93
2022-11-29T06:31:19.707Z,14.23
2022-11-29T06:34:30.951Z,13.90
2022-11-29T06:37:27.458Z,13.67
2022-11-29T06:39:59.768Z,15.03
2022-11-29T06:42:31.837Z,14.77
2022-11-29T06:45:05.556Z,14.07
2022-11-29T06:47:43.800Z,15.53
2022-11-29T06:51:27.893Z,15.53
2022-11-29T06:54:05.496Z,15.50
2022-11-29T06:57:26.293Z,15.63
2022-11-29T07:00:20.639Z,14.60
2022-11-29T07:03:33.636Z,15.13
2022-11-29T07:06:22.730Z,16.30
2022-11-29T07:09:20.248Z,16.03
2022-11-29T07:11:52.673Z,15.30
2022-11-29T07:14:25.216Z,16.27
2022-11-29T07:17:08.701Z,16.47
2022-11-29T07:20:22.275Z,15.60
2022-11-29T07:23:19.376Z,16.00
2022-11-29T07:26:03.669Z,16.27
2022-11-29T07:29:07.418Z,22.20
2022-11-29T07:32:25.220Z,17.60
2022-11-29T07:35:08.906Z,17.03
2022-11-29T07:37:51.175Z,16.67
2022-11-29T07:40:38.878Z,16.60
2022-11-29T07:43:27.333Z,17.47
2022-11-29T07:46:00.828Z,17.80
2022-11-29T07:48:32.726Z,17.80
2022-11-29T07:51:04.838Z,17.20
2022-11-29T07:53:43.317Z,19.47
2022-11-29T07:56:16.399Z,17.10
2022-11-29T07:58:48.538Z,18.70
2022-11-29T08:01:20.603Z,18.70
2022-11-29T08:03:52.628Z,18.63
2022-11-29T08:06:25.990Z,18.20
2022-11-29T08:08:59.777Z,18.90
2022-11-29T08:11:31.710Z,19.03
2022-11-29T08:14:05.487Z,18.37
2022-11-29T08:16:37.736Z,19.43
2022-11-29T08:19:09.751Z,18.17
2022-11-29T08:21:46.890Z,18.83
2022-11-29T08:24:18.855Z,18.73
2022-11-29T08:26:50.750Z,18.27
2022-11-29T08:29:22.708Z,18.37
2022-11-29T08:31:55.215Z,19.03
2022-11-29T08:34:27.266Z,19.13
2022-11-29T08:36:59.158Z,18.43
2022-11-29T08:39:31.022Z,19.47
2022-11-29T08:42:03.101Z,19.10
2022-11-29T08:44:35.025Z,19.43
2022-11-29T08:47:25.370Z,18.17
2022-11-29T08:50:03.201Z,23.03
2022-11-29T08:52:57.908Z,20.17
2022-11-29T08:55:40.572Z,18.43
2022-11-29T08:58:15.330Z,19.50
2022-11-29T09:00:47.418Z,20.60
2022-11-29T09:03:38.398Z,21.47
2022-11-29T09:06:14.428Z,20.33
2022-11-29T09:08:46.393Z,21.40
2022-11-29T09:11:22.259Z,22.67
2022-11-29T09:14:01.524Z,22.10
2022-11-29T09:16:36.774Z,26.10
2022-11-29T09:19:09.027Z,22.50
2022-11-29T09:21:40.952Z,21.93
2022-11-29T09:24:12.855Z,21.63
2022-11-29T09:26:48.191Z,20.73
2022-11-29T09:29:20.257Z,21.03
2022-11-29T09:31:52.208Z,21.60
2022-11-29T09:34:24.242Z,20.20
2022-11-29T09:36:56.595Z,19.83
2022-11-29T09:39:28.525Z,21.17
2022-11-29T09:42:39.750Z,21.53
2022-11-29T09:45:24.390Z,21.27
2022-11-29T09:48:28.891Z,21.03
2022-11-29T09:51:28.056Z,21.27
2022-11-29T09:54:27.768Z,22.90
2022-11-29T09:57:00.076Z,21.30
2022-11-29T09:59:43.425Z,20.90
2022-11-29T10:02:21.287Z,19.77
2022-11-29T10:05:08.644Z,19.53
2022-11-29T10:07:51.359Z,17.63
2022-11-29T10:10:40.532Z,16.60
2022-11-29T10:13:29.635Z,15.47
2022-11-29T10:16:23.559Z,16.40
2022-11-29T10:19:28.371Z,16.00
2022-11-29T10:22:10.849Z,15.60
2022-11-29T10:24:48.894Z,15.60
2022-11-29T10:27:23.916Z,17.67
2022-11-29T10:29:59.264Z,16.80
2022-11-29T10:32:33.214Z,16.03
2022-11-29T10:35:18.717Z,15.83
2022-11-29T10:38:29.263Z,15.60
2022-11-29T10:41:07.993Z,15.20
2022-11-29T10:43:39.929Z,14.03
2022-11-29T10:46:26.820Z,14.93
2022-11-29T10:49:02.939Z,13.20
2022-11-29T10:51:35.123Z,13.53
2022-11-29T10:54:43.732Z,13.37
2022-11-29T10:57:22.033Z,13.67
2022-11-29T11:00:09.763Z,14.27
2022-11-29T11:02:42.132Z,14.77
2022-11-29T11:05:18.949Z,15.60
2022-11-29T11:07:58.807Z,15.07
2022-11-29T11:10:31.192Z,15.00
2022-11-29T11:13:20.850Z,16.07
2022-11-29T11:16:15.705Z,16.67
2022-11-29T11:18:48.606Z,15.90
2022-11-29T11:21:25.399Z,16.57
2022-11-29T11:24:03.078Z,16.50
2022-11-29T11:26:44.980Z,16.87
2022-11-29T11:29:25.897Z,15.97
2022-11-29T11:32:00.656Z,16.37
2022-11-29T11:34:37.293Z,16.93
2022-11-29T11:37:15.482Z,15.93
2022-11-29T11:39:52.091Z,16.07
2022-11-29T11:42:38.488Z,16.63
2022-11-29T11:45:13.179Z,16.53
2022-11-29T11:48:11.280Z,15.47
2022-11-29T11:50:51.522Z,15.30
2022-11-29T11:53:27.594Z,16.27
2022-11-29T11:56:12.795Z,15.80
2022-11-29T11:58:49.734Z,17.17
2022-11-29T12:01:38.868Z,18.60
2022-11-29T12:04:37.174Z,17.47
2022-11-29T12:08:09.787Z,16.90
2022-11-29T12:10:42.444Z,16.67
2022-11-29T12:13:25.812Z,16.77
2022-11-29T12:16:07.446Z,17.63
2022-11-29T12:18:51.770Z,18.30
2022-11-29T12:21:32.243Z,18.20
2022-11-29T12:24:25.120Z,18.83
2022-11-29T12:27:03.052Z,18.27
2022-11-29T12:29:35.597Z,18.47
2022-11-29T12:33:00.245Z,19.70
2022-11-29T12:35:45.335Z,18.63
2022-11-29T12:38:44.049Z,18.63
2022-11-29T12:42:01.470Z,18.03
2022-11-29T12:45:03.362Z,17.37
2022-11-29T12:48:13.635Z,17.23
2022-11-29T12:51:21.943Z,17.40
2022-11-29T12:54:43.300Z,17.20
2022-11-29T12:57:29.358Z,16.43
2022-11-29T13:00:19.852Z,17.03
2022-11-29T13:03:48.610Z,17.33
2022-11-29T13:06:36.674Z,18.00
2022-11-29T13:09:20.404Z,17.20
2022-11-29T13:12:15.506Z,19.10
2022-11-29T13:15:03.137Z,18.70
2022-11-29T13:18:00.464Z,19.20
2022-11-29T13:20:53.874Z,19.77
2022-11-29T13:24:09.116Z,19.43
2022-11-29T13:26:43.925Z,19.90
2022-11-29T13:29:19.004Z,20.63
2022-11-29T13:31:52.010Z,20.10
2022-11-29T13:34:45.607Z,20.87
2022-11-29T13:37:39.024Z,22.00
2022-11-29T13:40:38.146Z,21.03
2022-11-29T13:43:16.235Z,19.40
2022-11-29T13:46:12.705Z,17.57
2022-11-29T13:48:53.380Z,18.57
2022-11-29T13:51:34.110Z,18.40
2022-11-29T13:54:26.808Z,18.63
2022-11-29T13:57:09.156Z,18.10
2022-11-29T13:59:50.890Z,19.43
2022-11-29T14:02:31.419Z,19.43
2022-11-29T14:05:07.397Z,20.43
2022-11-29T14:08:23.664Z,19.70
2022-11-29T14:11:15.251Z,20.13
2022-11-29T14:14:07.930Z,20.90
2022-11-29T14:16:53.423Z,21.67
2022-11-29T14:19:36.895Z,21.60
2022-11-29T14:22:21.620Z,21.80
2022-11-29T14:25:49.775Z,22.43
2022-11-29T14:28:14.582Z,22.53
2022-11-29T14:30:52.249Z,22.03
2022-11-29T14:33:58.390Z,21.83
2022-11-29T14:36:40.132Z,22.90
2022-11-29T14:39:46.891Z,22.03
2022-11-29T14:42:22.140Z,31.60
2022-11-29T14:44:59.935Z,27.77
2022-11-29T14:47:37.196Z,28.50
2022-11-29T14:50:39.431Z,26.33
2022-11-29T14:53:38.773Z,26.60
2022-11-29T14:56:29.458Z,25.60
2022-11-29T14:59:47.090Z,26.17
2022-11-29T15:02:33.489Z,24.93
2022-11-29T15:05:20.933Z,25.77
2022-11-29T15:08:34.954Z,26.50
2022-11-29T15:11:37.287Z,26.97
2022-11-29T15:14:34.184Z,26.37
2022-11-29T15:17:51.889Z,24.83
2022-11-29T15:21:07.542Z,26.43
2022-11-29T15:23:42.698Z,27.37
2022-11-29T15:26:21.776Z,28.67
2022-11-29T15:28:53.689Z,27.73
2022-11-29T15:31:25.775Z,29.23
2022-11-29T15:33:57.700Z,30.20
2022-11-29T15:36:30.556Z,30.50
2022-11-29T15:39:02.592Z,27.97
2022-11-29T15:41:35.726Z,30.27
2022-11-29T15:44:22.149Z,29.03
2022-11-29T15:46:54.135Z,29.00
2022-11-29T15:49:28.867Z,29.30
2022-11-29T15:52:10.828Z,35.38
2022-11-29T15:54:56.563Z,31.40
2022-11-29T15:57:48.795Z,29.57
2022-11-29T16:00:24.302Z,28.10
2022-11-29T16:03:05.163Z,27.93
2022-11-29T16:05:39.099Z,27.30
2022-11-29T16:08:20.199Z,33.78
2022-11-29T16:10:53.395Z,29.90
2022-11-29T16:13:39.158Z,29.37
2022-11-29T16:16:22.047Z,26.83
2022-11-29T16:18:54.367Z,26.70
2022-11-29T16:21:31.222Z,27.83
2022-11-29T16:24:20.750Z,26.93
2022-11-29T16:26:54.223Z,26.00
2022-11-29T16:29:33.931Z,26.87
2022-11-29T16:32:42.476Z,28.17
2022-11-29T16:35:23.047Z,27.53
2022-11-29T16:37:56.013Z,26.13
2022-11-29T16:40:34.692Z,25.17
2022-11-29T16:43:23.652Z,24.77
2022-11-29T16:46:21.253Z,23.67
2022-11-29T16:48:58.350Z,23.70
2022-11-29T16:51:47.808Z,23.80
2022-11-29T16:54:33.202Z,32.97
2022-11-29T16:57:09.128Z,27.67
2022-11-29T16:59:41.091Z,25.57
2022-11-29T17:02:15.045Z,26.00
2022-11-29T17:04:47.242Z,25.13
2022-11-29T17:07:35.315Z,27.67
2022-11-29T17:10:13.413Z,24.60
2022-11-29T17:12:48.259Z,23.97
2022-11-29T17:15:20.565Z,26.50
2022-11-29T17:17:52.596Z,26.10
2022-11-29T17:20:24.577Z,24.70
2022-11-29T17:22:57.330Z,23.90
2022-11-29T17:25:29.337Z,23.13
2022-11-29T17:28:01.429Z,23.27
2022-11-29T17:30:33.347Z,24.83
2022-11-29T17:33:05.234Z,23.67
2022-11-29T17:35:37.153Z,22.53
2022-11-29T17:38:09.036Z,23.67
2022-11-29T17:40:40.945Z,24.30
2022-11-29T17:43:12.838Z,24.03
2022-11-29T17:45:44.902Z,23.10
2022-11-29T17:48:16.827Z,22.73
2022-11-29T17:50:48.754Z,23.07
2022-11-29T17:53:20.655Z,22.63
2022-11-29T17:55:52.572Z,22.93
2022-11-29T17:58:24.539Z,23.43
2022-11-29T18:01:06.425Z,22.83
2022-11-29T18:03:42.407Z,23.47
2022-11-29T18:06:18.180Z,22.57
2022-11-29T18:08:54.534Z,22.60
2022-11-29T18:11:47.112Z,23.40
2022-11-29T18:14:23.972Z,23.20
2022-11-29T18:16:56.448Z,24.87
2022-11-29T18:19:29.889Z,25.07
2022-11-29T18:22:02.903Z,25.27
2022-11-29T18:24:34.889Z,26.60
2022-11-29T18:27:06.814Z,25.33
2022-11-29T18:29:39.457Z,26.83
2022-11-29T18:32:11.537Z,26.10
2022-11-29T18:34:43.570Z,26.40
2022-11-29T18:37:24.055Z,25.97
2022-11-29T18:40:08.503Z,26.73
2022-11-29T18:42:40.405Z,26.70
2022-11-29T18:45:12.343Z,26.90
2022-11-29T18:47:45.502Z,28.13
2022-11-29T18:50:17.425Z,28.20
2022-11-29T18:52:49.447Z,27.13
2022-11-29T18:55:21.493Z,26.20
2022-11-29T18:57:53.986Z,26.77
2022-11-29T19:00:25.973Z,28.10
2022-11-29T19:02:57.975Z,27.40
2022-11-29T19:05:29.937Z,26.37
2022-11-29T19:08:01.917Z,27.20
2022-11-29T19:10:33.852Z,27.97
2022-11-29T19:13:05.779Z,29.53
2022-11-29T19:15:37.753Z,27.63
2022-11-29T19:18:09.671Z,28.20
2022-11-29T19:20:41.585Z,28.20
2022-11-29T19:23:14.534Z,28.13
2022-11-29T19:25:47.397Z,28.50
2022-11-29T19:28:19.313Z,27.93
2022-11-29T19:30:55.511Z,28.27
2022-11-29T19:33:27.426Z,28.13
2022-11-29T19:36:21.521Z,28.80
2022-11-29T19:38:54.632Z,29.37
2022-11-29T19:41:30.842Z,29.00
2022-11-29T19:44:08.528Z,29.87
2022-11-29T19:46:45.933Z,29.53
2022-11-29T19:49:17.951Z,28.67
2022-11-29T19:51:50.030Z,31.17
2022-11-29T19:54:22.001Z,29.97
2022-11-29T19:56:55.685Z,30.83
2022-11-29T19:59:27.619Z,31.23
2022-11-29T20:01:59.927Z,29.87
2022-11-29T20:04:31.901Z,30.80
2022-11-29T20:07:03.935Z,31.47
2022-11-29T20:09:35.772Z,30.17
2022-11-29T20:12:07.741Z,31.17
2022-11-29T20:14:39.680Z,30.30
2022-11-29T20:17:11.720Z,31.73
2022-11-29T20:19:43.833Z,32.03
2022-11-29T20:22:16.058Z,30.80
2022-11-29T20:24:47.975Z,31.30
2022-11-29T20:27:19.912Z,31.57
2022-11-29T20:29:51.857Z,30.47
2022-11-29T20:32:23.988Z,30.87
2022-11-29T20:34:56.271Z,30.97
2022-11-29T20:37:39.068Z,31.17
2022-11-29T20:40:32.278Z,31.60
2022-11-29T20:43:29.277Z,31.10
2022-11-29T20:46:01.557Z,31.07
2022-11-29T20:48:33.802Z,31.03
2022-11-29T20:51:06.245Z,31.17
2022-11-29T20:53:46.187Z,31.57
2022-11-29T20:56:18.186Z,32.53
2022-11-29T20:58:50.179Z,30.80
2022-11-29T21:01:22.146Z,30.53
2022-11-29T21:03:54.207Z,30.67
2022-11-29T21:06:26.250Z,32.13
2022-11-29T21:08:58.138Z,30.90
2022-11-29T21:11:30.418Z,32.37
2022-11-29T21:14:04.498Z,31.13
2022-11-29T21:16:36.721Z,31.30
2022-11-29T21:19:20.058Z,31.23
2022-11-29T21:22:10.245Z,29.67
2022-11-29T21:24:56.990Z,29.40
2022-11-29T21:27:34.816Z,31.43
2022-11-29T21:30:14.780Z,30.33
2022-11-29T21:32:47.972Z,31.80
2022-11-29T21:35:20.024Z,32.43
2022-11-29T21:37:56.307Z,30.83
2022-11-29T21:40:28.605Z,32.70
2022-11-29T21:43:00.539Z,32.63
2022-11-29T21:45:32.478Z,34.93
2022-11-29T21:48:24.692Z,34.93
2022-11-29T21:50:56.774Z,33.33
2022-11-29T21:53:29.096Z,37.27
2022-11-29T21:56:05.703Z,35.47
2022-11-29T21:58:39.635Z,33.83
2022-11-29T22:01:19.504Z,36.40
2022-11-29T22:03:53.922Z,35.90
2022-11-29T22:06:27.769Z,35.97
2022-11-29T22:09:00.206Z,35.10
2022-11-29T22:11:34.085Z,34.60
2022-11-29T22:14:19.120Z,36.23
2022-11-29T22:17:00.759Z,36.20
2022-11-29T22:19:36.402Z,37.77
2022-11-29T22:22:10.903Z,35.43
2022-11-29T22:24:42.787Z,35.13
2022-11-29T22:27:14.898Z,36.47
2022-11-29T22:29:47.034Z,36.03
2022-11-29T22:32:19.036Z,36.67
2022-11-29T22:34:51.011Z,36.03
2022-11-29T22:37:23.149Z,36.40
2022-11-29T22:39:55.061Z,36.83
2022-11-29T22:42:26.940Z,36.03
2022-11-29T22:44:58.840Z,36.27
2022-11-29T22:47:30.936Z,36.63
2022-11-29T22:50:02.979Z,36.27
2022-11-29T22:52:35.011Z,36.87
2022-11-29T22:55:07.374Z,35.60
2022-11-29T22:57:39.296Z,37.10
2022-11-29T23:00:13.672Z,36.03
2022-11-29T23:02:45.564Z,35.77
2022-11-29T23:05:17.547Z,34.87
2022-11-29T23:07:54.245Z,35.47
2022-11-29T23:10:26.235Z,36.67
2022-11-29T23:12:58.197Z,34.97
2022-11-29T23:15:30.146Z,35.13
2022-11-29T23:18:02.392Z,32.87
2022-11-29T23:20:34.365Z,34.10
2022-11-29T23:23:06.480Z,33.57
2022-11-29T23:25:46.612Z,34.07
2022-11-29T23:28:18.514Z,33.90
2022-11-29T23:30:51.640Z,32.50
2022-11-29T23:33:24.262Z,33.60
2022-11-29T23:36:06.210Z,32.97
2022-11-29T23:38:38.796Z,32.00
2022-11-29T23:41:11.754Z,33.00
2022-11-29T23:43:44.079Z,33.20
2022-11-29T23:46:19.130Z,32.87
2022-11-29T23:48:51.853Z,32.97
2022-11-29T23:51:23.830Z,32.70
2022-11-29T23:53:55.828Z,33.07
2022-11-29T23:56:27.796Z,32.33
2022-11-29T23:58:59.662Z,32.20
